createdAt,value
2022-12-01T00:00:17.791Z,101393.44
2022-12-01T00:04:19.272Z,101387.38
2022-12-01T00:08:20.752Z,101385.63
2022-12-01T00:12:22.335Z,101386.50
2022-12-01T00:16:24.001Z,101384.75
2022-12-01T00:20:25.614Z,101383.81
2022-12-01T00:24:27.194Z,101382.84
2022-12-01T00:28:28.793Z,101380.38
2022-12-01T00:32:31.016Z,101383.00
2022-12-01T00:36:32.914Z,101383.94
2022-12-01T00:40:34.509Z,101380.53
2022-12-01T00:44:36.108Z,101375.31
2022-12-01T00:48:38.825Z,101368.38
2022-12-01T00:52:40.437Z,101370.94
2022-12-01T00:56:42.107Z,101379.72
2022-12-01T01:00:43.657Z,101384.03
2022-12-01T01:04:45.214Z,101379.75
2022-12-01T01:08:46.935Z,101385.81
2022-12-01T01:12:48.455Z,101388.44
2022-12-01T01:16:50.124Z,101382.19
2022-12-01T01:21:03.835Z,101389.16
2022-12-01T01:25:05.738Z,101389.25
2022-12-01T01:29:07.827Z,101372.72
2022-12-01T01:33:10.184Z,101387.53
2022-12-01T01:37:11.611Z,101393.50
2022-12-01T01:41:13.798Z,101389.94
2022-12-01T01:45:24.390Z,101389.94
2022-12-01T01:49:26.072Z,101395.94
2022-12-01T01:53:27.911Z,101387.22
2022-12-01T01:57:32.066Z,101388.19
2022-12-01T02:01:33.894Z,101394.25
2022-12-01T02:05:37.488Z,101391.84
2022-12-01T02:09:39.135Z,101387.44
2022-12-01T02:13:52.785Z,101389.94
2022-12-01T02:18:06.986Z,101377.75
2022-12-01T02:22:26.470Z,101389.16
2022-12-01T02:26:49.537Z,101389.22
2022-12-01T02:31:15.084Z,101385.81
2022-12-01T02:35:19.981Z,101380.72
2022-12-01T02:39:38.616Z,101388.50
2022-12-01T02:43:53.420Z,101387.47
2022-12-01T02:47:59.961Z,101394.50
2022-12-01T02:52:04.615Z,101396.31
2022-12-01T02:56:10.385Z,101391.06
2022-12-01T03:00:13.692Z,101390.19
2022-12-01T03:04:50.716Z,101397.06
2022-12-01T03:09:04.154Z,101393.44
2022-12-01T03:13:30.201Z,101386.56
2022-12-01T03:17:44.963Z,101381.47
2022-12-01T03:21:54.617Z,101378.06
2022-12-01T03:25:59.345Z,101384.13
2022-12-01T03:30:02.885Z,101382.47
2022-12-01T03:34:17.887Z,101388.56
2022-12-01T03:38:24.664Z,101389.38
2022-12-01T03:42:33.551Z,101392.09
2022-12-01T03:46:44.506Z,101391.38
2022-12-01T03:50:59.978Z,101386.97
2022-12-01T03:55:26.112Z,101402.59
2022-12-01T03:59:29.957Z,101387.63
2022-12-01T04:03:31.796Z,101397.13
2022-12-01T04:07:33.804Z,101404.16
2022-12-01T04:11:54.162Z,101398.19
2022-12-01T04:15:55.742Z,101409.44
2022-12-01T04:19:57.815Z,101400.69
2022-12-01T04:24:01.640Z,101398.91
2022-12-01T04:28:03.144Z,101396.16
2022-12-01T04:32:05.174Z,101398.88
2022-12-01T04:36:07.373Z,101396.34
2022-12-01T04:40:09.952Z,101392.66
2022-12-01T04:44:11.756Z,101397.75
2022-12-01T04:48:13.455Z,101404.06
2022-12-01T04:52:15.268Z,101397.22
2022-12-01T04:56:17.099Z,101405.88
2022-12-01T05:00:18.869Z,101400.72
2022-12-01T05:04:20.503Z,101398.06
2022-12-01T05:08:22.013Z,101391.78
2022-12-01T05:12:23.744Z,101406.69
2022-12-01T05:16:28.434Z,101407.50
2022-12-01T05:20:48.621Z,101410.22
2022-12-01T05:24:50.343Z,101410.22
2022-12-01T05:28:51.923Z,101414.59
2022-12-01T05:32:53.889Z,101405.88
2022-12-01T05:36:55.373Z,101415.47
2022-12-01T05:40:56.945Z,101405.09
2022-12-01T05:44:58.507Z,101411.06
2022-12-01T05:49:00.159Z,101420.59
2022-12-01T05:53:01.654Z,101430.41
2022-12-01T05:57:03.303Z,101424.28
2022-12-01T06:01:07.093Z,101432.16
2022-12-01T06:05:09.892Z,101433.81
2022-12-01T06:09:11.423Z,101438.38
2022-12-01T06:13:13.064Z,101431.47
2022-12-01T06:17:14.742Z,101435.75
2022-12-01T06:21:16.341Z,101428.63
2022-12-01T06:25:18.007Z,101433.66
2022-12-01T06:29:19.666Z,101439.00
2022-12-01T06:33:21.240Z,101436.41
2022-12-01T06:37:22.790Z,101442.53
2022-12-01T06:41:24.283Z,101447.88
2022-12-01T06:45:26.189Z,101448.84
2022-12-01T06:49:27.758Z,101453.19
2022-12-01T06:53:29.766Z,101451.44
2022-12-01T06:57:51.871Z,101452.16
2022-12-01T07:01:54.217Z,101451.19
2022-12-01T07:06:00.644Z,101457.16
2022-12-01T07:10:02.353Z,101459.63
2022-12-01T07:14:37.551Z,101464.91
2022-12-01T07:18:40.390Z,101470.88
2022-12-01T07:22:43.046Z,101480.50
2022-12-01T07:26:44.849Z,101480.69
2022-12-01T07:30:46.500Z,101485.13
2022-12-01T07:34:48.330Z,101479.09
2022-12-01T07:38:50.116Z,101480.03
2022-12-01T07:42:51.932Z,101478.31
2022-12-01T07:46:54.510Z,101478.38
2022-12-01T07:50:56.277Z,101481.91
2022-12-01T07:54:57.868Z,101477.50
2022-12-01T08:04:34.403Z,101483.09
2022-12-01T08:08:45.784Z,101483.94
2022-12-01T08:12:47.883Z,101482.28
2022-12-01T08:16:49.549Z,101488.56
2022-12-01T08:20:57.648Z,101478.94
2022-12-01T08:25:24.144Z,101486.06
2022-12-01T08:29:26.225Z,101488.66
2022-12-01T08:33:29.037Z,101492.22
2022-12-01T08:37:30.585Z,101487.91
2022-12-01T08:41:32.090Z,101484.38
2022-12-01T08:46:00.995Z,101485.00
2022-12-01T08:50:04.912Z,101492.56
2022-12-01T08:54:06.622Z,101503.97
2022-12-01T08:58:08.227Z,101500.69
2022-12-01T09:02:15.265Z,101494.53
2022-12-01T09:06:20.887Z,101497.81
2022-12-01T09:10:22.478Z,101499.72
2022-12-01T09:14:24.401Z,101505.97
2022-12-01T09:18:26.203Z,101502.59
2022-12-01T09:22:27.731Z,101506.25
2022-12-01T09:26:30.000Z,101505.09
2022-12-01T09:30:31.856Z,101493.66
2022-12-01T09:34:35.944Z,101496.22
2022-12-01T09:38:39.114Z,101495.53
2022-12-01T09:42:41.387Z,101493.84
2022-12-01T09:46:48.446Z,101494.75
2022-12-01T09:50:50.136Z,101493.84
2022-12-01T09:54:55.061Z,101490.88
2022-12-01T09:59:00.610Z,101490.88
2022-12-01T10:03:29.728Z,101493.53
2022-12-01T10:08:12.776Z,101481.25
2022-12-01T10:13:04.103Z,101481.03
2022-12-01T10:17:47.484Z,101483.59
2022-12-01T10:22:11.236Z,101473.63
2022-12-01T10:26:17.571Z,101471.09
2022-12-01T10:30:23.433Z,101472.69
2022-12-01T10:34:28.704Z,101465.81
2022-12-01T10:38:36.685Z,101462.41
2022-12-01T10:43:10.296Z,101463.22
2022-12-01T10:48:03.319Z,101456.00
2022-12-01T10:52:06.542Z,101455.53
2022-12-01T10:56:22.727Z,101463.59
2022-12-01T11:00:57.894Z,101457.59
2022-12-01T11:04:59.693Z,101453.34
2022-12-01T11:09:06.289Z,101454.16
2022-12-01T11:13:37.222Z,101454.16
2022-12-01T11:17:43.404Z,101449.41
2022-12-01T11:22:24.768Z,101446.50
2022-12-01T11:26:37.991Z,101447.66
2022-12-01T11:31:10.022Z,101439.66
2022-12-01T11:35:26.550Z,101445.69
2022-12-01T11:39:39.980Z,101439.38
2022-12-01T11:43:50.547Z,101430.63
2022-12-01T11:48:30.112Z,101428.56
2022-12-01T11:54:02.613Z,101427.53
2022-12-01T11:58:06.066Z,101426.25
2022-12-01T12:02:59.703Z,101434.38
2022-12-01T12:07:46.672Z,101423.84
2022-12-01T12:12:25.598Z,101413.41
2022-12-01T12:16:47.622Z,101418.66
2022-12-01T12:21:20.514Z,101417.84
2022-12-01T12:26:01.643Z,101416.13
2022-12-01T12:30:20.797Z,101413.63
2022-12-01T12:34:49.496Z,101409.13
2022-12-01T12:39:03.078Z,101408.72
2022-12-01T12:43:23.722Z,101415.09
2022-12-01T12:47:38.420Z,101415.69
2022-12-01T12:51:46.418Z,101406.25
2022-12-01T12:55:51.491Z,101408.16
2022-12-01T13:00:13.767Z,101401.97
2022-12-01T13:05:00.039Z,101401.66
2022-12-01T13:15:20.741Z,101403.22
2022-12-01T13:19:41.442Z,101399.13
2022-12-01T13:24:33.183Z,101404.78
2022-12-01T13:28:40.864Z,101401.50
2022-12-01T13:33:04.851Z,101405.66
2022-12-01T13:37:29.815Z,101407.41
2022-12-01T13:41:38.489Z,101404.41
2022-12-01T13:46:20.436Z,101409.03
2022-12-01T13:50:39.024Z,101413.41
2022-12-01T13:55:00.617Z,101407.50
2022-12-01T13:59:02.706Z,101410.91
2022-12-01T14:03:16.591Z,101407.38
2022-12-01T14:07:38.113Z,101410.00
2022-12-01T14:11:40.276Z,101399.56
2022-12-01T14:15:43.133Z,101397.00
2022-12-01T14:19:52.297Z,101393.16
2022-12-01T14:24:02.190Z,101390.44
2022-12-01T14:28:12.079Z,101396.91
2022-12-01T14:32:17.296Z,101396.25
2022-12-01T14:36:35.747Z,101403.06
2022-12-01T14:40:37.497Z,101402.44
2022-12-01T14:44:45.970Z,101398.16
2022-12-01T14:48:48.038Z,101397.31
2022-12-01T14:52:57.596Z,101391.81
2022-12-01T14:57:06.885Z,101392.75
2022-12-01T15:01:13.444Z,101391.91
2022-12-01T15:05:20.761Z,101382.94
2022-12-01T15:09:38.996Z,101383.88
2022-12-01T15:13:43.614Z,101380.59
2022-12-01T15:17:45.292Z,101378.84
2022-12-01T15:21:46.799Z,101370.91
2022-12-01T15:25:48.398Z,101377.91
2022-12-01T15:29:50.285Z,101383.13
2022-12-01T15:33:53.415Z,101374.41
2022-12-01T15:37:58.116Z,101378.03
2022-12-01T15:41:59.990Z,101385.84
2022-12-01T15:46:11.503Z,101382.25
2022-12-01T15:50:42.684Z,101384.75
2022-12-01T15:54:49.846Z,101386.34
2022-12-01T15:58:51.797Z,101384.09
2022-12-01T16:02:56.238Z,101392.13
2022-12-01T16:07:10.046Z,101390.41
2022-12-01T16:11:16.717Z,101386.84
2022-12-01T16:15:19.537Z,101395.94
2022-12-01T16:19:26.357Z,101404.72
2022-12-01T16:23:27.950Z,101397.69
2022-12-01T16:27:31.672Z,101396.88
2022-12-01T16:31:33.313Z,101394.25
2022-12-01T16:35:35.145Z,101388.25
2022-12-01T16:39:36.820Z,101392.47
2022-12-01T16:43:38.594Z,101400.13
2022-12-01T16:47:40.797Z,101392.81
2022-12-01T16:51:55.512Z,101387.53
2022-12-01T16:56:02.495Z,101399.03
2022-12-01T17:00:04.831Z,101390.97
2022-12-01T17:04:07.924Z,101390.00
2022-12-01T17:08:09.922Z,101392.69
2022-12-01T17:12:13.555Z,101398.13
2022-12-01T17:16:18.425Z,101396.63
2022-12-01T17:20:20.356Z,101393.03
2022-12-01T17:24:22.439Z,101389.41
2022-12-01T17:28:24.003Z,101391.09
2022-12-01T17:32:26.871Z,101386.44
2022-12-01T17:36:29.234Z,101389.88
2022-12-01T17:40:31.023Z,101391.63
2022-12-01T17:44:32.767Z,101391.75
2022-12-01T17:48:39.050Z,101393.44
2022-12-01T17:52:40.816Z,101396.13
2022-12-01T17:56:43.569Z,101390.97
2022-12-01T18:00:45.283Z,101394.38
2022-12-01T18:04:46.983Z,101396.19
2022-12-01T18:08:48.926Z,101399.69
2022-12-01T18:12:50.637Z,101395.09
2022-12-01T18:16:52.901Z,101401.22
2022-12-01T18:20:54.712Z,101402.06
2022-12-01T18:24:56.451Z,101403.81
2022-12-01T18:29:04.913Z,101394.97
2022-12-01T18:33:10.941Z,101396.66
2022-12-01T18:37:12.722Z,101386.06
2022-12-01T18:41:20.397Z,101385.13
2022-12-01T18:45:22.285Z,101379.78
2022-12-01T18:49:24.044Z,101379.84
2022-12-01T18:53:25.712Z,101379.84
2022-12-01T18:57:27.975Z,101375.56
2022-12-01T19:01:33.047Z,101379.19
2022-12-01T19:05:38.812Z,101373.97
2022-12-01T19:09:40.934Z,101377.41
2022-12-01T19:13:42.776Z,101369.53
2022-12-01T19:17:44.704Z,101367.84
2022-12-01T19:21:46.504Z,101369.50
2022-12-01T19:25:48.802Z,101370.25
2022-12-01T19:29:52.112Z,101363.97
2022-12-01T19:33:54.954Z,101363.16
2022-12-01T19:37:58.098Z,101361.56
2022-12-01T19:41:59.797Z,101361.47
2022-12-01T19:46:16.418Z,101357.91
2022-12-01T19:50:19.373Z,101362.34
2022-12-01T19:54:21.065Z,101359.72
2022-12-01T19:58:24.859Z,101361.47
2022-12-01T20:02:29.270Z,101359.56
2022-12-01T20:06:33.333Z,101355.97
2022-12-01T20:10:34.877Z,101365.53
2022-12-01T20:14:36.495Z,101367.19
2022-12-01T20:18:38.714Z,101359.16
2022-12-01T20:22:40.201Z,101365.38
2022-12-01T20:26:50.907Z,101371.41
2022-12-01T20:30:52.678Z,101360.00
2022-12-01T20:34:54.350Z,101359.94
2022-12-01T20:38:56.387Z,101355.56
2022-12-01T20:42:58.027Z,101347.75
2022-12-01T20:47:16.620Z,101354.94
2022-12-01T20:51:18.879Z,101346.28
2022-12-01T20:55:20.791Z,101344.59
2022-12-01T20:59:22.652Z,101335.00
2022-12-01T21:03:41.960Z,101328.81
2022-12-01T21:07:49.182Z,101334.09
2022-12-01T21:17:53.664Z,101333.47
2022-12-01T21:22:21.581Z,101337.78
2022-12-01T21:32:22.997Z,101330.78
2022-12-01T21:42:49.600Z,101340.50
2022-12-01T21:46:56.293Z,101336.28
2022-12-01T21:51:04.671Z,101345.16
2022-12-01T21:55:33.033Z,101327.59
2022-12-01T21:59:36.528Z,101326.69
2022-12-01T22:03:44.962Z,101321.50
2022-12-01T22:07:46.649Z,101329.44
2022-12-01T22:11:52.886Z,101323.38
2022-12-01T22:15:55.149Z,101324.28
2022-12-01T22:20:20.659Z,101326.00
2022-12-01T22:24:26.299Z,101321.72
2022-12-01T22:28:27.728Z,101319.16
2022-12-01T22:32:32.344Z,101323.59
2022-12-01T22:36:34.500Z,101318.44
2022-12-01T22:40:48.501Z,101322.78
2022-12-01T22:44:50.230Z,101317.50
2022-12-01T22:49:22.161Z,101315.00
2022-12-01T22:53:29.357Z,101314.88
2022-12-01T22:57:37.086Z,101304.38
2022-12-01T23:01:46.858Z,101304.44
2022-12-01T23:05:55.460Z,101305.53
2022-12-01T23:10:04.349Z,101300.38
2022-12-01T23:14:13.801Z,101300.38
2022-12-01T23:18:20.016Z,101284.56
2022-12-01T23:22:21.737Z,101287.28
2022-12-01T23:26:23.381Z,101276.75
2022-12-01T23:30:25.118Z,101273.19
2022-12-01T23:34:26.577Z,101271.47
2022-12-01T23:38:39.612Z,101280.19
2022-12-01T23:42:42.125Z,101268.66
2022-12-01T23:46:48.750Z,101267.72
2022-12-01T23:50:59.196Z,101267.63
2022-12-01T23:55:01.475Z,101259.69
2022-12-01T23:59:03.075Z,101264.94
